createdAt,value
2022-08-12T00:02:04.054Z,1.27
2022-08-12T00:04:53.431Z,1.35
2022-08-12T00:07:39.569Z,1.40
2022-08-12T00:10:25.626Z,1.85
2022-08-12T00:13:13.111Z,1.45
2022-08-12T00:16:02.924Z,1.75
2022-08-12T00:18:49.624Z,1.73
2022-08-12T00:21:38.399Z,3.05
2022-08-12T00:24:25.995Z,1.40
2022-08-12T00:27:12.946Z,1.92
2022-08-12T00:29:58.917Z,1.77
2022-08-12T00:32:54.576Z,2.40
2022-08-12T00:35:42.525Z,2.70
2022-08-12T00:38:29.865Z,2.38
2022-08-12T00:41:17.309Z,1.52
2022-08-12T00:43:44.487Z,1.60
2022-08-12T00:46:30.275Z,2.55
2022-08-12T00:48:57.950Z,1.85
2022-08-12T00:51:48.595Z,2.33
2022-08-12T00:54:17.157Z,2.33
2022-08-12T00:56:49.800Z,2.53
2022-08-12T00:59:17.539Z,3.00
2022-08-12T01:02:11.283Z,2.92
2022-08-12T01:04:56.354Z,2.22
2022-08-12T01:07:45.066Z,2.05
2022-08-12T01:10:33.031Z,2.25
2022-08-12T01:13:07.526Z,2.65
2022-08-12T01:15:51.803Z,2.38
2022-08-12T01:18:24.489Z,2.95
2022-08-12T01:21:00.521Z,3.10
2022-08-12T01:26:25.481Z,1.95
2022-08-12T01:28:58.501Z,2.92
2022-08-12T01:31:27.519Z,3.55
2022-08-12T01:34:33.381Z,2.42
2022-08-12T01:36:57.917Z,2.38
2022-08-12T01:40:34.147Z,2.67
2022-08-12T01:42:49.887Z,3.03
2022-08-12T01:45:24.843Z,3.03
2022-08-12T01:48:46.149Z,2.63
2022-08-12T01:52:15.141Z,4.05
2022-08-12T01:54:29.808Z,2.80
2022-08-12T01:57:58.462Z,2.95
2022-08-12T02:00:12.377Z,2.78
2022-08-12T02:02:53.973Z,2.40
2022-08-12T02:05:48.428Z,2.55
2022-08-12T02:09:10.368Z,2.83
2022-08-12T02:12:13.334Z,2.45
2022-08-12T02:15:03.800Z,2.42
2022-08-12T02:17:56.129Z,2.53
2022-08-12T02:20:51.902Z,3.28
2022-08-12T02:23:25.569Z,3.22
2022-08-12T02:25:57.062Z,2.30
2022-08-12T02:28:24.414Z,2.15
2022-08-12T02:30:52.096Z,2.42
2022-08-12T02:33:19.880Z,2.67
2022-08-12T02:35:48.665Z,2.22
2022-08-12T02:38:16.594Z,2.55
2022-08-12T02:40:47.645Z,2.47
2022-08-12T02:43:38.117Z,2.45
2022-08-12T02:46:14.718Z,2.45
2022-08-12T02:48:42.121Z,2.30
2022-08-12T02:51:11.901Z,2.45
2022-08-12T02:53:39.750Z,3.72
2022-08-12T02:56:07.670Z,3.08
2022-08-12T02:58:36.308Z,2.38
2022-08-12T03:01:11.633Z,3.28
2022-08-12T03:03:40.841Z,2.42
2022-08-12T03:06:15.962Z,3.08
2022-08-12T03:08:53.580Z,2.85
2022-08-12T03:11:48.703Z,2.08
2022-08-12T03:14:18.632Z,2.80
2022-08-12T03:16:57.633Z,3.22
2022-08-12T03:19:24.837Z,3.25
2022-08-12T03:22:09.116Z,3.00
2022-08-12T03:24:40.304Z,3.17
2022-08-12T03:27:10.353Z,3.20
2022-08-12T03:29:50.115Z,2.72
2022-08-12T03:32:35.839Z,2.42
2022-08-12T03:35:07.461Z,2.92
2022-08-12T03:37:36.705Z,2.80
2022-08-12T03:40:04.455Z,2.95
2022-08-12T03:42:40.888Z,2.65
2022-08-12T03:45:26.605Z,1.77
2022-08-12T03:48:25.553Z,2.50
2022-08-12T03:51:12.219Z,2.17
2022-08-12T03:53:58.269Z,2.25
2022-08-12T03:56:43.817Z,2.55
2022-08-12T03:59:29.837Z,1.98
2022-08-12T04:01:57.978Z,2.53
2022-08-12T04:04:34.234Z,3.38
2022-08-12T04:09:37.984Z,1.98
2022-08-12T04:12:24.604Z,2.50
2022-08-12T04:14:54.509Z,3.25
2022-08-12T04:17:21.612Z,2.60
2022-08-12T04:19:49.016Z,3.40
2022-08-12T04:22:18.770Z,3.47
2022-08-12T04:24:50.575Z,2.90
2022-08-12T04:27:17.684Z,3.05
2022-08-12T04:30:16.591Z,2.88
2022-08-12T04:32:32.350Z,3.08
2022-08-12T04:34:59.257Z,2.75
2022-08-12T04:37:26.197Z,1.98
2022-08-12T04:39:54.516Z,2.10
2022-08-12T04:42:22.379Z,2.10
2022-08-12T04:44:49.386Z,2.08
2022-08-12T04:47:17.353Z,1.60
2022-08-12T04:49:48.244Z,2.22
2022-08-12T04:52:15.756Z,2.33
2022-08-12T04:54:44.134Z,2.67
2022-08-12T04:57:11.910Z,1.95
2022-08-12T04:59:48.404Z,3.90
2022-08-12T05:02:20.884Z,3.35
2022-08-12T05:05:01.111Z,2.25
2022-08-12T05:07:28.769Z,2.10
2022-08-12T05:10:00.611Z,2.25
2022-08-12T05:12:39.739Z,2.85
2022-08-12T05:15:19.538Z,3.42
2022-08-12T05:17:55.728Z,2.20
2022-08-12T05:20:23.337Z,3.90
2022-08-12T05:22:54.726Z,2.70
2022-08-12T05:25:25.453Z,3.92
2022-08-12T05:27:58.255Z,2.30
2022-08-12T05:30:27.731Z,2.85
2022-08-12T05:32:56.276Z,3.28
2022-08-12T05:35:27.833Z,3.58
2022-08-12T05:38:14.918Z,3.38
2022-08-12T05:40:42.169Z,3.40
2022-08-12T05:43:09.299Z,2.10
2022-08-12T05:45:38.318Z,2.83
2022-08-12T05:48:07.326Z,3.72
2022-08-12T05:50:35.721Z,2.00
2022-08-12T05:53:03.325Z,2.88
2022-08-12T05:55:31.686Z,2.40
2022-08-12T05:57:58.903Z,2.08
2022-08-12T06:00:26.885Z,2.08
2022-08-12T06:02:57.129Z,2.17
2022-08-12T06:05:24.177Z,2.40
2022-08-12T06:08:02.259Z,1.98
2022-08-12T06:10:32.086Z,1.90
2022-08-12T06:13:04.772Z,2.40
2022-08-12T06:15:34.861Z,2.10
2022-08-12T06:18:13.615Z,2.03
2022-08-12T06:20:43.814Z,1.98
2022-08-12T06:23:12.035Z,2.75
2022-08-12T06:25:39.123Z,3.13
2022-08-12T06:28:17.510Z,2.20
2022-08-12T06:30:57.296Z,2.10
2022-08-12T06:33:59.558Z,1.95
2022-08-12T06:36:29.663Z,2.30
2022-08-12T06:38:59.533Z,2.20
2022-08-12T06:42:10.671Z,2.58
2022-08-12T06:44:32.772Z,2.00
2022-08-12T06:47:00.182Z,1.92
2022-08-12T06:49:34.807Z,2.30
2022-08-12T06:52:01.720Z,2.58
2022-08-12T06:54:31.255Z,1.88
2022-08-12T06:57:04.165Z,2.00
2022-08-12T06:59:32.478Z,2.17
2022-08-12T07:01:59.428Z,1.90
2022-08-12T07:04:36.139Z,1.65
2022-08-12T07:07:10.619Z,2.15
2022-08-12T07:10:04.804Z,1.30
2022-08-12T07:12:29.963Z,1.60
2022-08-12T07:14:58.668Z,1.65
2022-08-12T07:17:26.509Z,1.98
2022-08-12T07:19:55.478Z,1.35
2022-08-12T07:22:25.005Z,1.27
2022-08-12T07:25:11.877Z,1.10
2022-08-12T07:27:42.847Z,0.98
2022-08-12T07:30:10.494Z,1.08
2022-08-12T07:32:37.873Z,1.13
2022-08-12T07:35:05.154Z,0.80
2022-08-12T07:37:35.137Z,0.73
2022-08-12T07:40:02.239Z,0.90
2022-08-12T07:42:29.691Z,0.90
2022-08-12T07:44:57.064Z,0.93
2022-08-12T07:47:24.581Z,0.85
2022-08-12T07:50:05.148Z,0.80
2022-08-12T07:52:38.531Z,0.95
2022-08-12T07:55:06.692Z,0.88
2022-08-12T07:57:34.796Z,0.90
2022-08-12T08:00:05.372Z,1.02
2022-08-12T08:02:33.863Z,0.68
2022-08-12T08:05:01.212Z,1.00
2022-08-12T08:07:30.733Z,1.00
2022-08-12T08:09:59.878Z,0.80
2022-08-12T08:12:47.083Z,0.77
2022-08-12T08:15:15.766Z,0.95
2022-08-12T08:17:57.961Z,0.70
2022-08-12T08:20:28.600Z,0.77
2022-08-12T08:22:59.678Z,0.80
2022-08-12T08:25:35.893Z,0.70
2022-08-12T08:28:08.124Z,0.85
2022-08-12T08:30:38.334Z,1.00
2022-08-12T08:33:23.436Z,0.70
2022-08-12T08:35:56.281Z,0.80
2022-08-12T08:38:33.242Z,0.60
2022-08-12T08:42:17.156Z,0.80
2022-08-12T08:44:11.281Z,0.80
2022-08-12T08:46:39.249Z,0.88
2022-08-12T08:49:07.051Z,0.90
2022-08-12T08:51:34.341Z,0.70
2022-08-12T08:54:01.506Z,0.95
2022-08-12T08:56:31.474Z,4.82
2022-08-12T08:58:58.851Z,1.42
2022-08-12T09:01:26.825Z,1.33
2022-08-12T09:05:11.903Z,0.80
2022-08-12T09:06:56.732Z,0.93
2022-08-12T09:09:24.285Z,0.80
2022-08-12T09:12:12.186Z,0.80
2022-08-12T09:14:43.706Z,0.70
2022-08-12T09:17:21.379Z,1.00
2022-08-12T09:19:57.496Z,0.70
2022-08-12T09:25:25.338Z,0.98
2022-08-12T09:28:15.554Z,1.17
2022-08-12T09:30:46.525Z,1.10
2022-08-12T09:34:25.522Z,0.80
2022-08-12T09:36:05.615Z,1.05
2022-08-12T09:38:35.365Z,0.80
2022-08-12T09:42:33.162Z,0.90
2022-08-12T09:44:37.771Z,0.80
2022-08-12T09:46:57.010Z,0.80
2022-08-12T09:49:27.583Z,0.98
2022-08-12T09:51:55.643Z,0.55
2022-08-12T09:54:32.992Z,0.80
2022-08-12T09:58:07.582Z,0.57
2022-08-12T10:00:16.973Z,0.70
2022-08-12T10:03:31.341Z,0.70
2022-08-12T10:06:26.775Z,0.75
2022-08-12T10:08:44.960Z,0.80
2022-08-12T10:12:05.583Z,1.20
2022-08-12T10:14:35.009Z,0.95
2022-08-12T10:17:03.496Z,0.98
2022-08-12T10:19:37.858Z,0.63
2022-08-12T10:22:16.450Z,0.80
2022-08-12T10:25:04.781Z,0.75
2022-08-12T10:28:07.078Z,0.60
2022-08-12T10:30:46.933Z,0.70
2022-08-12T10:33:31.565Z,1.20
2022-08-12T10:36:00.056Z,0.80
2022-08-12T10:38:34.939Z,1.02
2022-08-12T10:41:57.133Z,1.05
2022-08-12T10:44:17.229Z,0.98
2022-08-12T10:46:49.523Z,0.93
2022-08-12T10:50:02.884Z,1.00
2022-08-12T10:52:34.876Z,1.10
2022-08-12T10:54:56.219Z,0.90
2022-08-12T10:57:50.354Z,1.08
2022-08-12T11:00:31.315Z,1.15
2022-08-12T11:04:24.443Z,0.90
2022-08-12T11:07:08.852Z,1.00
2022-08-12T11:08:42.366Z,1.30
2022-08-12T11:13:49.048Z,1.02
2022-08-12T11:16:21.742Z,1.38
2022-08-12T11:18:55.028Z,1.00
2022-08-12T11:21:56.621Z,1.45
2022-08-12T11:24:31.845Z,1.00
2022-08-12T11:26:58.477Z,1.20
2022-08-12T11:29:27.442Z,1.55
2022-08-12T11:32:14.352Z,1.55
2022-08-12T11:34:53.562Z,1.42
2022-08-12T11:37:25.420Z,1.73
2022-08-12T11:42:46.047Z,1.70
2022-08-12T11:45:16.390Z,2.10
2022-08-12T11:47:44.017Z,1.58
2022-08-12T11:50:19.141Z,2.00
2022-08-12T11:52:56.816Z,1.92
2022-08-12T11:55:46.732Z,1.80
2022-08-12T11:58:36.610Z,2.00
2022-08-12T12:03:48.380Z,1.63
2022-08-12T12:06:17.565Z,2.60
2022-08-12T12:08:50.412Z,2.20
2022-08-12T12:11:18.883Z,1.88
2022-08-12T12:14:08.228Z,1.90
2022-08-12T12:16:38.128Z,1.52
2022-08-12T12:19:10.099Z,1.80
2022-08-12T12:21:48.017Z,2.08
2022-08-12T12:24:21.439Z,2.53
2022-08-12T12:27:00.856Z,2.47
2022-08-12T12:30:19.770Z,2.35
2022-08-12T12:32:18.948Z,2.53
2022-08-12T12:35:14.390Z,2.50
2022-08-12T12:38:04.003Z,2.35
2022-08-12T12:40:21.976Z,2.35
2022-08-12T12:43:03.018Z,2.45
2022-08-12T12:45:34.129Z,2.50
2022-08-12T12:48:04.333Z,2.40
2022-08-12T12:50:45.756Z,2.85
2022-08-12T12:54:06.388Z,2.40
2022-08-12T12:56:16.406Z,2.40
2022-08-12T12:58:44.134Z,2.50
2022-08-12T13:01:25.390Z,2.40
2022-08-12T13:04:01.687Z,2.05
2022-08-12T13:06:30.073Z,2.60
2022-08-12T13:08:57.611Z,2.42
2022-08-12T13:11:42.261Z,2.45
2022-08-12T13:14:28.845Z,5.47
2022-08-12T13:17:02.426Z,2.28
2022-08-12T13:19:37.865Z,2.03
2022-08-12T13:22:18.482Z,2.13
2022-08-12T13:24:46.520Z,2.55
2022-08-12T13:27:20.778Z,2.08
2022-08-12T13:29:48.794Z,2.33
2022-08-12T13:32:28.191Z,2.55
2022-08-12T13:35:04.683Z,2.65
2022-08-12T13:37:55.313Z,2.83
2022-08-12T13:40:29.596Z,2.47
2022-08-12T13:43:02.066Z,2.72
2022-08-12T13:45:31.449Z,2.30
2022-08-12T13:48:04.490Z,2.15
2022-08-12T13:50:36.462Z,1.90
2022-08-12T13:53:24.587Z,1.55
2022-08-12T13:56:01.959Z,2.40
2022-08-12T13:58:30.954Z,2.00
2022-08-12T14:01:05.791Z,2.50
2022-08-12T14:03:51.533Z,3.33
2022-08-12T14:06:19.959Z,2.70
2022-08-12T14:08:49.790Z,3.10
2022-08-12T14:11:18.469Z,3.15
2022-08-12T14:14:03.169Z,2.30
2022-08-12T14:16:46.681Z,3.60
2022-08-12T14:19:22.841Z,3.30
2022-08-12T14:22:01.505Z,3.03
2022-08-12T14:24:35.610Z,2.63
2022-08-12T14:27:09.107Z,2.80
2022-08-12T14:30:04.995Z,2.92
2022-08-12T14:32:28.585Z,2.63
2022-08-12T14:34:56.759Z,2.72
2022-08-12T14:37:56.781Z,3.30
2022-08-12T14:40:18.601Z,2.78
2022-08-12T14:42:49.648Z,3.80
2022-08-12T14:45:22.986Z,3.33
2022-08-12T14:47:53.722Z,3.67
2022-08-12T14:50:57.529Z,4.43
2022-08-12T14:55:24.688Z,2.70
2022-08-12T14:59:20.433Z,3.53
2022-08-12T15:01:51.042Z,3.80
2022-08-12T15:04:28.749Z,2.97
2022-08-12T15:06:56.238Z,2.90
2022-08-12T15:09:29.350Z,3.40
2022-08-12T15:12:03.945Z,4.13
2022-08-12T15:14:31.877Z,4.03
2022-08-12T15:17:00.212Z,3.28
2022-08-12T15:20:12.493Z,5.15
2022-08-12T15:22:37.556Z,3.45
2022-08-12T15:25:07.206Z,3.85
2022-08-12T15:28:04.656Z,4.00
2022-08-12T15:30:31.515Z,3.50
2022-08-12T15:32:59.151Z,3.80
2022-08-12T15:35:38.163Z,3.17
2022-08-12T15:38:17.165Z,3.63
2022-08-12T15:40:53.521Z,3.90
2022-08-12T15:43:35.663Z,4.40
2022-08-12T15:46:15.236Z,4.00
2022-08-12T15:48:47.631Z,3.28
2022-08-12T15:51:57.224Z,4.50
2022-08-12T15:54:34.343Z,4.43
2022-08-12T15:57:05.822Z,4.05
2022-08-12T16:00:03.739Z,4.50
2022-08-12T16:02:23.191Z,4.03
2022-08-12T16:04:54.383Z,3.65
2022-08-12T16:07:26.061Z,3.30
2022-08-12T16:10:07.221Z,4.10
2022-08-12T16:12:54.233Z,3.75
2022-08-12T16:15:25.001Z,4.07
2022-08-12T16:18:25.903Z,5.10
2022-08-12T16:20:42.705Z,3.75
2022-08-12T16:23:36.562Z,4.90
2022-08-12T16:26:15.429Z,4.30
2022-08-12T16:28:48.025Z,4.50
2022-08-12T16:31:22.804Z,3.80
2022-08-12T16:33:59.436Z,3.88
2022-08-12T16:36:28.597Z,3.65
2022-08-12T16:38:55.562Z,3.40
2022-08-12T16:41:23.668Z,3.20
2022-08-12T16:43:53.049Z,3.65
2022-08-12T16:46:31.933Z,2.80
2022-08-12T16:49:08.612Z,3.35
2022-08-12T16:51:40.408Z,4.70
2022-08-12T16:54:12.783Z,4.05
2022-08-12T16:56:55.578Z,4.38
2022-08-12T16:59:53.432Z,3.80
2022-08-12T17:02:18.084Z,3.70
2022-08-12T17:05:03.319Z,4.75
2022-08-12T17:07:36.523Z,4.72
2022-08-12T17:10:10.162Z,4.13
2022-08-12T17:12:39.389Z,4.27
2022-08-12T17:15:50.639Z,4.80
2022-08-12T17:18:15.503Z,3.85
2022-08-12T17:20:48.964Z,4.90
2022-08-12T17:23:19.157Z,5.20
2022-08-12T17:25:52.775Z,5.55
2022-08-12T17:28:22.530Z,6.00
2022-08-12T17:30:59.484Z,4.93
2022-08-12T17:33:27.983Z,5.40
2022-08-12T17:36:02.993Z,3.90
2022-08-12T17:38:30.603Z,4.97
2022-08-12T17:40:57.993Z,4.93
2022-08-12T17:43:54.879Z,6.18
2022-08-12T17:46:23.645Z,5.28
2022-08-12T17:48:55.350Z,6.25
2022-08-12T17:51:25.701Z,5.53
2022-08-12T17:54:10.827Z,6.57
2022-08-12T17:56:43.098Z,7.13
2022-08-12T17:59:12.496Z,5.90
2022-08-12T18:01:45.110Z,5.93
2022-08-12T18:04:23.302Z,5.93
2022-08-12T18:07:02.332Z,4.88
2022-08-12T18:09:32.203Z,5.38
2022-08-12T18:12:24.528Z,5.32
2022-08-12T18:15:01.870Z,3.92
2022-08-12T18:17:33.262Z,4.00
2022-08-12T18:20:15.491Z,4.85
2022-08-12T18:22:44.128Z,4.00
2022-08-12T18:26:10.054Z,5.22
2022-08-12T18:28:12.316Z,4.97
2022-08-12T18:30:52.581Z,4.13
2022-08-12T18:33:25.050Z,4.30
2022-08-12T18:35:55.539Z,5.80
2022-08-12T18:38:24.816Z,4.22
2022-08-12T18:41:22.064Z,3.90
2022-08-12T18:43:59.128Z,5.68
2022-08-12T18:46:48.725Z,6.22
2022-08-12T18:49:30.698Z,6.55
2022-08-12T18:52:04.773Z,6.28
2022-08-12T18:54:49.069Z,8.25
2022-08-12T18:58:06.491Z,6.60
2022-08-12T19:00:21.275Z,4.75
2022-08-12T19:02:50.960Z,5.05
2022-08-12T19:05:53.405Z,5.20
2022-08-12T19:08:12.798Z,4.25
2022-08-12T19:10:50.529Z,5.47
2022-08-12T19:13:39.610Z,5.63
2022-08-12T19:16:11.619Z,7.13
2022-08-12T19:18:41.010Z,6.38
2022-08-12T19:21:16.078Z,4.65
2022-08-12T19:24:04.454Z,5.68
2022-08-12T19:26:34.992Z,6.88
2022-08-12T19:29:03.085Z,7.60
2022-08-12T19:31:44.656Z,4.93
2022-08-12T19:38:04.513Z,5.32
2022-08-12T19:40:31.930Z,6.88
2022-08-12T19:43:17.816Z,9.18
2022-08-12T19:45:51.524Z,9.02
2022-08-12T19:48:20.076Z,7.32
2022-08-12T19:50:50.202Z,8.05
2022-08-12T19:53:22.751Z,5.38
2022-08-12T19:55:54.703Z,5.75
2022-08-12T19:58:23.542Z,6.03
2022-08-12T20:00:53.699Z,5.93
2022-08-12T20:03:39.781Z,11.55
2022-08-12T20:06:18.269Z,6.07
2022-08-12T20:08:56.675Z,7.63
2022-08-12T20:12:13.649Z,5.90
2022-08-12T20:14:19.466Z,7.38
2022-08-12T20:16:51.926Z,4.68
2022-08-12T20:19:23.352Z,5.50
2022-08-12T20:21:50.672Z,4.70
2022-08-12T20:24:19.306Z,6.03
2022-08-12T20:26:48.343Z,6.50
2022-08-12T20:29:16.666Z,7.55
2022-08-12T20:31:44.495Z,4.15
2022-08-12T20:34:12.225Z,4.90
2022-08-12T20:36:45.005Z,5.63
2022-08-12T20:39:37.508Z,3.95
2022-08-12T20:42:10.496Z,4.45
2022-08-12T20:44:39.874Z,5.70
2022-08-12T20:47:17.783Z,4.72
2022-08-12T20:49:55.272Z,5.90
2022-08-12T20:52:25.538Z,9.27
2022-08-12T20:54:58.029Z,6.78
2022-08-12T20:57:38.112Z,6.28
2022-08-12T21:00:14.325Z,5.70
2022-08-12T21:02:50.096Z,4.80
2022-08-12T21:06:12.740Z,6.30
2022-08-12T21:08:26.598Z,5.57
2022-08-12T21:10:58.917Z,3.72
2022-08-12T21:13:27.060Z,6.63
2022-08-12T21:15:59.716Z,3.10
2022-08-12T21:18:29.092Z,4.35
2022-08-12T21:20:59.028Z,4.22
2022-08-12T21:23:30.871Z,3.95
2022-08-12T21:26:12.326Z,6.47
2022-08-12T21:28:58.710Z,6.25
2022-08-12T21:32:37.336Z,5.50
2022-08-12T21:34:20.871Z,6.72
2022-08-12T21:36:51.944Z,5.22
2022-08-12T21:39:27.890Z,6.22
2022-08-12T21:42:06.525Z,8.18
2022-08-12T21:45:45.457Z,6.20
2022-08-12T21:47:23.056Z,6.28
2022-08-12T21:50:03.149Z,7.35
2022-08-12T21:52:40.386Z,7.80
2022-08-12T21:55:18.810Z,7.93
2022-08-12T21:57:54.085Z,7.00
2022-08-12T22:00:33.135Z,8.30
2022-08-12T22:04:03.055Z,6.72
2022-08-12T22:06:30.871Z,8.95
2022-08-12T22:09:16.129Z,8.30
2022-08-12T22:11:56.147Z,5.63
2022-08-12T22:14:29.651Z,5.30
2022-08-12T22:16:58.700Z,7.43
2022-08-12T22:19:27.878Z,7.28
2022-08-12T22:21:58.472Z,6.97
2022-08-12T22:24:30.129Z,8.73
2022-08-12T22:27:14.499Z,7.00
2022-08-12T22:30:08.644Z,7.28
2022-08-12T22:32:50.548Z,8.85
2022-08-12T22:35:56.365Z,8.82
2022-08-12T22:38:25.434Z,8.15
2022-08-12T22:40:57.502Z,7.72
2022-08-12T22:44:00.124Z,8.32
2022-08-12T22:46:32.675Z,10.75
2022-08-12T22:48:59.713Z,8.52
2022-08-12T22:51:27.229Z,6.35
2022-08-12T22:54:05.253Z,5.72
2022-08-12T22:56:37.281Z,7.30
2022-08-12T22:59:04.673Z,8.65
2022-08-12T23:01:52.333Z,11.50
2022-08-12T23:04:28.616Z,7.40
2022-08-12T23:06:58.435Z,7.82
2022-08-12T23:09:48.470Z,8.73
2022-08-12T23:12:40.792Z,5.93
2022-08-12T23:15:13.746Z,8.60
2022-08-12T23:17:41.900Z,11.18
2022-08-12T23:20:10.920Z,7.53
2022-08-12T23:22:38.670Z,6.45
2022-08-12T23:25:20.830Z,7.72
2022-08-12T23:28:29.298Z,6.03
2022-08-12T23:31:04.618Z,9.05
2022-08-12T23:33:59.902Z,9.68
2022-08-12T23:36:39.829Z,11.60
2022-08-12T23:40:06.675Z,6.88
2022-08-12T23:42:17.079Z,11.57
2022-08-12T23:44:43.954Z,7.25
2022-08-12T23:47:12.739Z,11.13
2022-08-12T23:49:57.835Z,7.95
2022-08-12T23:52:34.223Z,10.27
2022-08-12T23:55:23.570Z,11.40
2022-08-12T23:57:51.039Z,7.18
